Cruise inventory

RRS Shackleton S2/81

Cruise summary report

Cruise Info. 
Ship name (ship code)RRS Shackleton (74SF)
Cruise identifierS2/81
Cruise period1981-10-14 — 1981-11-17
StatusCompleted
ObjectivesStudy of the upwelling area off the North West African coast between 19N and 24N. Specific activities were:
(1) Deployment of current meter moorings
(2) Coarse grid CTD survey with fine-resolution surveys of frontal features located.
(3) Drogued buoy deployment and tracking
Chief scientistPeter Hughes (University of Liverpool Department of Oceanography)
Ocean/sea areas 
GeneralNorth East Atlantic Ocean (limit 40W)
Track chartsRRS Shackleton S2/81 cruise track — trk2626.html RRS Shackleton S2/81 cruise track — trk2626a.html RRS Shackleton S2/81 cruise track — trk2626b.html
Measurements 
Physical oceanography 
Surface measurements underway (T,S)
CTD stationsQuantity: number of stations = 143
Current metersQuantity: 3
Description: 3 recovery by "Discovery" in april 1982
Chemical oceanography 
PhosphateQuantity: 110
NitrateQuantity: 110
NitriteQuantity: 110
Data held at BODC 
Series/Profiles 
140  CTD/STD cast
Vertical spatial coordinates
Salinity of the water column
Temperature of the water column
Vertical spatial coordinates
Salinity of the water column
Temperature of the water column

BODC idDate/TimeLocationDoc.
779241981-11-09 17:06  — 1981-11-09 17:32 22° 0' 10" N  18° 33' 31" W  View metadata report for BODC series reference number 77924
779361981-11-09 18:10  — 1981-11-09 18:31 21° 59' 56" N  18° 33' 42" W  View metadata report for BODC series reference number 77936
779481981-11-09 19:01  — 1981-11-09 19:24 22° 0' 13" N  18° 33' 38" W  View metadata report for BODC series reference number 77948
779611981-11-09 21:07  — 1981-11-09 21:24 21° 59' 56" N  18° 33' 38" W  View metadata report for BODC series reference number 77961
779731981-11-09 22:02  — 1981-11-09 22:20 21° 59' 56" N  18° 33' 42" W  View metadata report for BODC series reference number 77973
779851981-11-09 23:00  — 1981-11-09 23:22 22° 0' 2" N  18° 33' 31" W  View metadata report for BODC series reference number 77985
779971981-11-10 00:05  — 1981-11-10 00:27 22° 0' 2" N  18° 33' 21" W  View metadata report for BODC series reference number 77997
780001981-11-10 01:02  — 1981-11-10 01:17 22° 0' 21" N  18° 33' 17" W  View metadata report for BODC series reference number 78000
780121981-11-10 02:05  — 1981-11-10 02:29 22° 0' 13" N  18° 33' 17" W  View metadata report for BODC series reference number 78012
780241981-11-10 09:16  — 1981-11-10 09:32 22° 0' 43" N  18° 33' 35" W  View metadata report for BODC series reference number 78024
780361981-11-10 10:01  — 1981-11-10 10:21 22° 0' 53" N  18° 33' 31" W  View metadata report for BODC series reference number 78036
780481981-11-10 11:02  — 1981-11-10 11:23 22° 1' 19" N  18° 33' 38" W  View metadata report for BODC series reference number 78048
780611981-11-10 12:12  — 1981-11-10 12:27 22° 1' 22" N  18° 33' 42" W  View metadata report for BODC series reference number 78061
780731981-11-10 13:06  — 1981-11-10 13:27 22° 1' 14" N  18° 33' 17" W  View metadata report for BODC series reference number 78073
780851981-11-10 14:03  — 1981-11-10 14:17 22° 1' 11" N  18° 33' 28" W  View metadata report for BODC series reference number 78085
780971981-11-10 15:01  — 1981-11-10 15:20 22° 1' 8" N  18° 33' 38" W  View metadata report for BODC series reference number 78097
781041981-11-10 16:04  — 1981-11-10 16:28 22° 1' 4" N  18° 33' 46" W  View metadata report for BODC series reference number 78104
781161981-11-10 17:01  — 1981-11-10 17:29 22° 0' 57" N  18° 33' 57" W  View metadata report for BODC series reference number 78116
781281981-11-10 18:00  — 1981-11-10 18:18 22° 0' 49" N  18° 33' 28" W  View metadata report for BODC series reference number 78128
781411981-11-10 19:02  — 1981-11-10 19:26 22° 0' 53" N  18° 33' 38" W  View metadata report for BODC series reference number 78141
781531981-11-10 20:02  — 1981-11-10 20:24 22° 1' 11" N  18° 34' 7" W  View metadata report for BODC series reference number 78153
781651981-11-10 21:00  — 1981-11-10 21:24 22° 1' 22" N  18° 34' 1" W  View metadata report for BODC series reference number 78165
781771981-11-10 23:48  — 1981-11-11 00:07 22° 9' 31" N  18° 26' 16" W  View metadata report for BODC series reference number 78177
781891981-11-11 02:22  — 1981-11-11 02:42 22° 25' 11" N  18° 27' 43" W  View metadata report for BODC series reference number 78189
781901981-11-11 05:25  — 1981-11-11 05:50 22° 34' 4" N  18° 10' 15" W  View metadata report for BODC series reference number 78190
782081981-11-11 07:54  — 1981-11-11 08:14 22° 34' 37" N  17° 58' 50" W  View metadata report for BODC series reference number 78208
782211981-11-11 10:04  — 1981-11-11 10:28 22° 33' 2" N  17° 47' 49" W  View metadata report for BODC series reference number 78221
782331981-11-11 11:58  — 1981-11-11 12:17 22° 33' 2" N  17° 37' 58" W  View metadata report for BODC series reference number 78233
782451981-11-11 14:07  — 1981-11-11 14:24 22° 22' 4" N  17° 43' 11" W  View metadata report for BODC series reference number 78245
782571981-11-11 16:12  — 1981-11-11 16:34 22° 11' 27" N  17° 48' 6" W  View metadata report for BODC series reference number 78257
782691981-11-11 18:25 22° 0' 43" N  17° 52' 26" W  View metadata report for BODC series reference number 78269
782701981-11-11 20:08  — 1981-11-11 20:27 22° 3' 50" N  17° 56' 12" W  View metadata report for BODC series reference number 78270
782821981-11-11 21:15  — 1981-11-11 21:34 22° 5' 23" N  17° 56' 5" W  View metadata report for BODC series reference number 78282
782941981-11-11 22:22  — 1981-11-11 22:43 22° 6' 53" N  17° 56' 27" W  View metadata report for BODC series reference number 78294
783011981-11-11 23:32  — 1981-11-11 23:50 22° 8' 34" N  17° 56' 52" W  View metadata report for BODC series reference number 78301
783131981-11-12 00:57  — 1981-11-12 01:12 22° 10' 11" N  17° 57' 28" W  View metadata report for BODC series reference number 78313
783251981-11-12 02:03  — 1981-11-12 02:17 22° 11' 56" N  17° 57' 53" W  View metadata report for BODC series reference number 78325
783371981-11-12 03:06  — 1981-11-12 03:27 22° 13' 25" N  17° 57' 53" W  View metadata report for BODC series reference number 78337
783491981-11-12 04:17  — 1981-11-12 04:38 22° 15' 2" N  17° 58' 4" W  View metadata report for BODC series reference number 78349
783501981-11-12 06:25  — 1981-11-12 06:48 22° 17' 5" N  17° 57' 43" W  View metadata report for BODC series reference number 78350
783621981-11-12 07:48  — 1981-11-12 08:07 22° 20' 23" N  17° 57' 38" W  View metadata report for BODC series reference number 78362
783741981-11-12 09:44  — 1981-11-12 10:04 22° 23' 49" N  17° 57' 49" W  View metadata report for BODC series reference number 78374
783861981-11-12 10:46  — 1981-11-12 11:05 22° 26' 5" N  17° 57' 32" W  View metadata report for BODC series reference number 78386
783981981-11-12 11:46  — 1981-11-12 12:04 22° 28' 11" N  17° 57' 10" W  View metadata report for BODC series reference number 78398
784051981-11-12 12:58  — 1981-11-12 13:16 22° 30' 2" N  17° 56' 16" W  View metadata report for BODC series reference number 78405
784171981-11-12 14:42  — 1981-11-12 15:10 22° 31' 14" N  17° 55' 44" W  View metadata report for BODC series reference number 78417
777521981-11-08 14:38  — 1981-11-08 15:02 22° 4' 22" N  18° 3' 10" W  View metadata report for BODC series reference number 77752
777641981-11-08 15:52  — 1981-11-08 16:20 22° 4' 18" N  18° 1' 40" W  View metadata report for BODC series reference number 77764
777761981-11-08 17:29  — 1981-11-08 18:07 22° 3' 0" N  17° 59' 20" W  View metadata report for BODC series reference number 77776
777881981-11-08 19:05  — 1981-11-08 19:25 22° 1' 58" N  17° 57' 7" W  View metadata report for BODC series reference number 77788
778071981-11-08 20:48  — 1981-11-08 21:09 22° 0' 43" N  17° 54' 31" W  View metadata report for BODC series reference number 77807
778191981-11-09 01:14  — 1981-11-09 01:36 22° 0' 2" N  18° 29' 26" W  View metadata report for BODC series reference number 77819
778201981-11-09 02:51  — 1981-11-09 03:18 21° 59' 42" N  18° 36' 14" W  View metadata report for BODC series reference number 77820
778321981-11-09 04:29  — 1981-11-09 04:49 21° 58' 58" N  18° 42' 17" W  View metadata report for BODC series reference number 77832
778441981-11-09 06:18  — 1981-11-09 06:39 21° 59' 37" N  18° 47' 56" W  View metadata report for BODC series reference number 77844
778561981-11-09 11:05  — 1981-11-09 11:24 21° 59' 56" N  18° 33' 21" W  View metadata report for BODC series reference number 77856
778681981-11-09 12:05  — 1981-11-09 12:31 22° 0' 13" N  18° 33' 31" W  View metadata report for BODC series reference number 77868
778811981-11-09 13:16  — 1981-11-09 13:35 22° 0' 10" N  18° 33' 31" W  View metadata report for BODC series reference number 77881
778931981-11-09 14:07  — 1981-11-09 14:29 22° 0' 17" N  18° 33' 35" W  View metadata report for BODC series reference number 77893
779001981-11-09 15:08  — 1981-11-09 15:23 22° 0' 17" N  18° 33' 25" W  View metadata report for BODC series reference number 77900
779121981-11-09 16:03  — 1981-11-09 16:30 22° 0' 10" N  18° 33' 21" W  View metadata report for BODC series reference number 77912
771621981-11-02 21:36  — 1981-11-02 21:56 22° 0' 10" N  17° 51' 50" W  View metadata report for BODC series reference number 77162
771741981-11-03 15:03  — 1981-11-03 15:28 21° 59' 1" N  18° 12' 57" W  View metadata report for BODC series reference number 77174
771861981-11-03 15:48  — 1981-11-03 16:12 21° 59' 31" N  18° 12' 49" W  View metadata report for BODC series reference number 77186
771981981-11-03 17:23  — 1981-11-03 18:19 21° 59' 26" N  18° 11' 52" W  View metadata report for BODC series reference number 77198
772051981-11-03 23:03  — 1981-11-03 23:25 21° 50' 30" N  18° 1' 11" W  View metadata report for BODC series reference number 77205
772171981-11-04 19:59  — 1981-11-04 20:24 21° 51' 39" N  18° 0' 14" W  View metadata report for BODC series reference number 77217
772291981-11-04 20:56  — 1981-11-04 21:20 21° 52' 18" N  18° 2' 52" W  View metadata report for BODC series reference number 77229
772301981-11-04 21:40  — 1981-11-04 22:02 21° 52' 40" N  18° 3' 2" W  View metadata report for BODC series reference number 77230
772421981-11-05 20:28  — 1981-11-05 20:52 22° 8' 59" N  17° 59' 37" W  View metadata report for BODC series reference number 77242
772541981-11-05 21:12  — 1981-11-05 21:35 22° 8' 59" N  17° 59' 48" W  View metadata report for BODC series reference number 77254
772661981-11-05 22:07  — 1981-11-05 22:31 22° 8' 59" N  18° 0' 13" W  View metadata report for BODC series reference number 77266
772781981-11-06 01:29  — 1981-11-06 01:54 22° 1' 22" N  18° 23' 27" W  View metadata report for BODC series reference number 77278
772911981-11-06 04:08  — 1981-11-06 04:29 21° 59' 5" N  18° 37' 12" W  View metadata report for BODC series reference number 77291
773091981-11-06 06:25  — 1981-11-06 06:46 22° 0' 13" N  18° 50' 13" W  View metadata report for BODC series reference number 77309
773101981-11-06 07:54  — 1981-11-06 08:12 22° 0' 13" N  18° 48' 53" W  View metadata report for BODC series reference number 77310
773221981-11-06 08:54  — 1981-11-06 09:15 22° 0' 2" N  18° 48' 14" W  View metadata report for BODC series reference number 77322
773341981-11-06 10:00  — 1981-11-06 10:17 21° 59' 37" N  18° 48' 0" W  View metadata report for BODC series reference number 77334
773461981-11-06 11:37  — 1981-11-06 12:00 22° 0' 0" N  18° 46' 21" W  View metadata report for BODC series reference number 77346
773581981-11-06 12:50  — 1981-11-06 13:09 21° 59' 31" N  18° 46' 3" W  View metadata report for BODC series reference number 77358
773711981-11-06 14:01  — 1981-11-06 14:18 21° 58' 53" N  18° 45' 6" W  View metadata report for BODC series reference number 77371
773831981-11-06 15:10  — 1981-11-06 15:32 21° 58' 19" N  18° 45' 2" W  View metadata report for BODC series reference number 77383
773951981-11-06 16:27  — 1981-11-06 16:56 21° 57' 43" N  18° 44' 39" W  View metadata report for BODC series reference number 77395
774021981-11-06 17:36  — 1981-11-06 17:58 21° 58' 37" N  18° 44' 8" W  View metadata report for BODC series reference number 77402
774141981-11-06 18:36  — 1981-11-06 18:57 21° 58' 55" N  18° 43' 4" W  View metadata report for BODC series reference number 77414
774261981-11-06 20:01  — 1981-11-06 20:21 21° 59' 9" N  18° 41' 16" W  View metadata report for BODC series reference number 77426
774381981-11-06 21:00  — 1981-11-06 21:21 21° 59' 16" N  18° 40' 32" W  View metadata report for BODC series reference number 77438
774511981-11-06 22:00  — 1981-11-06 22:21 21° 59' 12" N  18° 39' 50" W  View metadata report for BODC series reference number 77451
774631981-11-06 23:11  — 1981-11-06 23:35 21° 59' 12" N  18° 39' 7" W  View metadata report for BODC series reference number 77463
774751981-11-07 00:17  — 1981-11-07 00:42 21° 59' 5" N  18° 38' 19" W  View metadata report for BODC series reference number 77475
774871981-11-07 01:39  — 1981-11-07 01:58 21° 59' 16" N  18° 36' 42" W  View metadata report for BODC series reference number 77487
774991981-11-07 03:07  — 1981-11-07 03:30 21° 59' 20" N  18° 35' 8" W  View metadata report for BODC series reference number 77499
775061981-11-07 06:02  — 1981-11-07 06:26 22° 0' 10" N  18° 35' 13" W  View metadata report for BODC series reference number 77506
775181981-11-07 07:18  — 1981-11-07 07:41 22° 0' 53" N  18° 32' 37" W  View metadata report for BODC series reference number 77518
775311981-11-07 08:50  — 1981-11-07 09:12 22° 1' 33" N  18° 31' 29" W  View metadata report for BODC series reference number 77531
775431981-11-07 10:01  — 1981-11-07 10:25 22° 1' 29" N  18° 30' 21" W  View metadata report for BODC series reference number 77543
775551981-11-07 11:28  — 1981-11-07 11:47 22° 1' 33" N  18° 29' 20" W  View metadata report for BODC series reference number 77555
775671981-11-07 12:33  — 1981-11-07 12:55 22° 1' 33" N  18° 27' 53" W  View metadata report for BODC series reference number 77567
775791981-11-07 13:46  — 1981-11-07 14:08 22° 1' 29" N  18° 26' 23" W  View metadata report for BODC series reference number 77579
775801981-11-07 15:18  — 1981-11-07 15:43 22° 1' 29" N  18° 25' 4" W  View metadata report for BODC series reference number 77580
775921981-11-07 16:30  — 1981-11-07 16:55 22° 1' 58" N  18° 23' 23" W  View metadata report for BODC series reference number 77592
776111981-11-07 17:45  — 1981-11-07 18:09 22° 2' 23" N  18° 21' 35" W  View metadata report for BODC series reference number 77611
776231981-11-07 19:30  — 1981-11-07 19:48 22° 3' 25" N  18° 20' 13" W  View metadata report for BODC series reference number 77623
776351981-11-07 20:32  — 1981-11-07 20:54 22° 4' 1" N  18° 18' 42" W  View metadata report for BODC series reference number 77635
776471981-11-07 21:44  — 1981-11-07 22:03 22° 4' 26" N  18° 17' 26" W  View metadata report for BODC series reference number 77647
776591981-11-07 23:13  — 1981-11-07 23:34 22° 4' 54" N  18° 16' 22" W  View metadata report for BODC series reference number 77659
776601981-11-08 00:22  — 1981-11-08 00:47 22° 4' 43" N  18° 15' 43" W  View metadata report for BODC series reference number 77660
776721981-11-08 03:30  — 1981-11-08 03:49 22° 7' 26" N  18° 14' 45" W  View metadata report for BODC series reference number 77672
776841981-11-08 04:59  — 1981-11-08 05:20 22° 8' 27" N  18° 12' 57" W  View metadata report for BODC series reference number 77684
776961981-11-08 06:06  — 1981-11-08 06:28 22° 8' 38" N  18° 11' 27" W  View metadata report for BODC series reference number 77696
777031981-11-08 07:27  — 1981-11-08 07:47 22° 8' 2" N  18° 9' 24" W  View metadata report for BODC series reference number 77703
777151981-11-08 08:58  — 1981-11-08 09:16 22° 7' 15" N  18° 7' 37" W  View metadata report for BODC series reference number 77715
777271981-11-08 10:09  — 1981-11-08 10:31 22° 5' 55" N  18° 6' 17" W  View metadata report for BODC series reference number 77727
777391981-11-08 11:39  — 1981-11-08 12:01 22° 4' 32" N  18° 5' 34" W  View metadata report for BODC series reference number 77739
777401981-11-08 13:15  — 1981-11-08 13:38 22° 4' 29" N  18° 4' 7" W  View metadata report for BODC series reference number 77740
770211981-10-31 11:09  — 1981-10-31 11:32 19° 0' 0" N  18° 25' 59" W  View metadata report for BODC series reference number 77021
770331981-10-31 16:32  — 1981-10-31 16:58 19° 30' 0" N  18° 41' 42" W  View metadata report for BODC series reference number 77033
770451981-10-31 22:29  — 1981-10-31 22:52 20° 0' 5" N  18° 58' 5" W  View metadata report for BODC series reference number 77045
770571981-11-01 03:37  — 1981-11-01 03:48 20° 30' 5" N  19° 14' 11" W  View metadata report for BODC series reference number 77057
770691981-11-01 08:44  — 1981-11-01 09:06 21° 0' 17" N  19° 29' 35" W  View metadata report for BODC series reference number 77069
770701981-11-01 13:50  — 1981-11-01 14:06 21° 30' 5" N  19° 44' 23" W  View metadata report for BODC series reference number 77070
770821981-11-01 22:22  — 1981-11-01 22:42 22° 0' 0" N  19° 57' 49" W  View metadata report for BODC series reference number 77082
770941981-11-02 02:16  — 1981-11-02 02:36 21° 59' 56" N  19° 28' 55" W  View metadata report for BODC series reference number 77094
771011981-11-02 06:57  — 1981-11-02 07:22 21° 59' 52" N  18° 56' 42" W  View metadata report for BODC series reference number 77101
771131981-11-02 11:38  — 1981-11-02 11:58 21° 59' 1" N  18° 22' 58" W  View metadata report for BODC series reference number 77113
771251981-11-02 15:01  — 1981-11-02 15:16 22° 0' 10" N  18° 16' 44" W  View metadata report for BODC series reference number 77125
771371981-11-02 16:33  — 1981-11-02 16:52 22° 0' 28" N  18° 10' 36" W  View metadata report for BODC series reference number 77137
771491981-11-02 18:23  — 1981-11-02 18:42 22° 0' 0" N  18° 2' 49" W  View metadata report for BODC series reference number 77149
771501981-11-02 19:54  — 1981-11-02 20:16 22° 0' 13" N  17° 56' 52" W  View metadata report for BODC series reference number 77150
768891981-10-28 16:48  — 1981-10-28 17:04 26° 0' 5" N  16° 24' 59" W  View metadata report for BODC series reference number 76889
768901981-10-29 01:15  — 1981-10-29 01:34 25° 0' 0" N  16° 52' 59" W  View metadata report for BODC series reference number 76890
769081981-10-29 09:48  — 1981-10-29 10:06 24° 0' 0" N  17° 21' 0" W  View metadata report for BODC series reference number 76908
769211981-10-29 14:25  — 1981-10-29 14:43 23° 31' 59" N  17° 33' 0" W  View metadata report for BODC series reference number 76921
769331981-10-29 20:36  — 1981-10-29 21:07 22° 51' 59" N  17° 45' 59" W  View metadata report for BODC series reference number 76933
769451981-10-30 00:56  — 1981-10-30 01:16 22° 30' 0" N  18° 0' 0" W  View metadata report for BODC series reference number 76945
769571981-10-30 05:40  — 1981-10-30 05:51 22° 0' 0" N  18° 12' 59" W  View metadata report for BODC series reference number 76957
769691981-10-30 10:09  — 1981-10-30 10:28 21° 30' 0" N  18° 25' 59" W  View metadata report for BODC series reference number 76969
769821981-10-30 21:04  — 1981-10-30 21:19 20° 30' 11" N  18° 26' 11" W  View metadata report for BODC series reference number 76982
769941981-10-31 01:22  — 1981-10-31 01:45 20° 0' 11" N  18° 26' 11" W  View metadata report for BODC series reference number 76994
770081981-10-31 06:38  — 1981-10-31 06:57 19° 30' 23" N  18° 26' 17" W  View metadata report for BODC series reference number 77008